Time;durP1;ratioP1;P1;durP2;ratioP2;P2;SDS_P1;SDS_P2;PMS_P1;PMS_P2;Temp;Humidity;BMP_temperature;BMP_pressure;BME280_temperature;BME280_humidity;BME280_pressure;Samples;Min_cycle;Max_cycle;Signal;HPM_P1;HPM_P2
2023/07/21 00:02:07;;;;;;;;;;;15.10;92.20;;;;;;5050676;28;19990;-42
2023/07/21 00:04:35;;;;;;;;;;;15.10;92.10;;;;;;5048615;28;20380;-41
2023/07/21 00:07:02;;;;;;;;;;;15.10;92.30;;;;;;5048780;28;20369;-41
2023/07/21 00:09:29;;;;;;;;;;;15.10;92.40;;;;;;5047033;28;19928;-42
2023/07/21 00:11:55;;;;;;;;;;;15.10;92.40;;;;;;5049507;28;20397;-42
2023/07/21 00:14:24;;;;;;;;;;;15.10;92.50;;;;;;5049358;28;19982;-42
2023/07/21 00:16:53;;;;;;;;;;;15.10;92.60;;;;;;5047029;28;19983;-41
2023/07/21 00:19:20;;;;;;;;;;;15.00;92.70;;;;;;5051400;28;19921;-42
2023/07/21 00:21:47;;;;;;;;;;;15.00;92.80;;;;;;5048213;28;20012;-41
2023/07/21 00:24:14;;;;;;;;;;;15.00;92.70;;;;;;5048843;28;19933;-41
2023/07/21 00:26:41;;;;;;;;;;;15.00;92.70;;;;;;5048765;28;19928;-42
2023/07/21 00:29:08;;;;;;;;;;;15.00;92.70;;;;;;5047658;28;20323;-42
2023/07/21 00:31:35;;;;;;;;;;;15.00;92.70;;;;;;5043809;28;19927;-42
2023/07/21 00:34:08;;;;;;;;;;;15.00;93.10;;;;;;5047064;28;19928;-42
2023/07/21 00:36:34;;;;;;;;;;;15.00;93.00;;;;;;5051410;28;19920;-42
2023/07/21 00:39:03;;;;;;;;;;;15.00;93.10;;;;;;5049936;28;19920;-42
2023/07/21 00:41:29;;;;;;;;;;;15.00;93.20;;;;;;5049084;28;19932;-40
2023/07/21 00:43:56;;;;;;;;;;;15.00;93.20;;;;;;5048011;28;19944;-41
2023/07/21 00:46:23;;;;;;;;;;;14.90;93.60;;;;;;5048893;28;19921;-41
2023/07/21 00:48:50;;;;;;;;;;;14.90;94.40;;;;;;5046548;28;19924;-42
2023/07/21 00:51:19;;;;;;;;;;;14.80;94.70;;;;;;5047830;28;19929;-42
2023/07/21 00:53:46;;;;;;;;;;;14.80;95.10;;;;;;5048443;28;20384;-42
2023/07/21 00:56:12;;;;;;;;;;;14.70;95.10;;;;;;5046525;28;19967;-41
2023/07/21 00:58:39;;;;;;;;;;;14.70;95.00;;;;;;5049424;28;19966;-41
2023/07/21 01:01:06;;;;;;;;;;;14.60;94.90;;;;;;5048448;28;19929;-42
2023/07/21 01:03:35;;;;;;;;;;;14.60;94.90;;;;;;5048273;28;20031;-41
2023/07/21 01:06:02;;;;;;;;;;;14.60;94.90;;;;;;5047055;28;19920;-42
2023/07/21 01:08:30;;;;;;;;;;;14.60;94.90;;;;;;5045272;28;20444;-42
2023/07/21 01:10:57;;;;;;;;;;;14.60;95.30;;;;;;5048523;28;19925;-42
2023/07/21 01:13:26;;;;;;;;;;;14.60;95.40;;;;;;5045414;28;19920;-41
2023/07/21 01:15:53;;;;;;;;;;;14.60;95.80;;;;;;5047916;28;19974;-42
2023/07/21 01:18:20;;;;;;;;;;;14.50;95.70;;;;;;5048901;28;20362;-42
2023/07/21 01:20:47;;;;;;;;;;;14.50;95.60;;;;;;5049350;28;20398;-41
2023/07/21 01:23:17;;;;;;;;;;;14.50;95.50;;;;;;5047015;28;19921;-41
2023/07/21 01:25:45;;;;;;;;;;;14.50;95.50;;;;;;5061453;28;19928;-41
2023/07/21 01:28:13;;;;;;;;;;;14.60;95.50;;;;;;5046284;28;19924;-41
2023/07/21 01:30:40;;;;;;;;;;;14.60;95.50;;;;;;5046993;28;19927;-42
2023/07/21 01:33:07;;;;;;;;;;;14.60;95.50;;;;;;5044655;28;20294;-41
2023/07/21 01:35:34;;;;;;;;;;;14.60;95.70;;;;;;5045446;28;19920;-41
2023/07/21 01:38:00;;;;;;;;;;;14.60;95.80;;;;;;5047753;28;19929;-42
2023/07/21 01:40:27;;;;;;;;;;;14.60;96.20;;;;;;5048578;28;19928;-43
2023/07/21 01:42:56;;;;;;;;;;;14.60;96.30;;;;;;5048568;28;19920;-41
2023/07/21 01:45:23;;;;;;;;;;;14.50;96.30;;;;;;5048395;28;19934;-41
2023/07/21 01:47:49;;;;;;;;;;;14.50;96.50;;;;;;5047495;28;19982;-41
2023/07/21 01:50:17;;;;;;;;;;;14.50;97.10;;;;;;5061190;28;19924;-42
2023/07/21 01:52:44;;;;;;;;;;;14.50;97.00;;;;;;5046565;28;20362;-42
2023/07/21 01:55:12;;;;;;;;;;;14.40;96.90;;;;;;5047948;28;21494;-41
2023/07/21 01:57:39;;;;;;;;;;;14.40;97.20;;;;;;5044659;28;19920;-42
2023/07/21 02:00:10;;;;;;;;;;;14.40;97.50;;;;;;5047434;28;20438;-42
2023/07/21 02:02:37;;;;;;;;;;;14.40;98.20;;;;;;5047034;28;19928;-42
2023/07/21 02:05:05;;;;;;;;;;;14.30;98.20;;;;;;5046064;28;20469;-42
2023/07/21 02:07:32;;;;;;;;;;;14.30;97.90;;;;;;5043295;28;19924;-42
2023/07/21 02:09:59;;;;;;;;;;;14.20;98.20;;;;;;5042789;28;19921;-42
2023/07/21 02:12:25;;;;;;;;;;;14.20;98.20;;;;;;5046661;28;19963;-41
2023/07/21 02:14:52;;;;;;;;;;;14.20;98.60;;;;;;5046317;28;19929;-42
2023/07/21 02:17:20;;;;;;;;;;;14.20;98.60;;;;;;5048142;28;19982;-42
2023/07/21 02:19:47;;;;;;;;;;;14.10;99.00;;;;;;5047935;28;19982;-42
2023/07/21 02:22:13;;;;;;;;;;;14.10;99.10;;;;;;5046362;28;19971;-41
2023/07/21 02:24:41;;;;;;;;;;;14.10;99.40;;;;;;5053029;28;20377;-42
2023/07/21 02:27:08;;;;;;;;;;;14.00;99.60;;;;;;5054405;28;19951;-41
2023/07/21 02:29:35;;;;;;;;;;;14.00;99.20;;;;;;5071962;28;19924;-42
2023/07/21 02:32:02;;;;;;;;;;;14.00;99.00;;;;;;5073720;28;19924;-41
2023/07/21 02:34:30;;;;;;;;;;;14.00;99.00;;;;;;5055634;28;20431;-43
2023/07/21 02:36:57;;;;;;;;;;;14.00;99.10;;;;;;5053962;28;19974;-43
2023/07/21 02:39:24;;;;;;;;;;;14.00;99.00;;;;;;5055341;28;19924;-42
2023/07/21 02:41:50;;;;;;;;;;;14.00;98.90;;;;;;5055326;28;20592;-43
2023/07/21 02:44:18;;;;;;;;;;;14.00;98.90;;;;;;5049472;28;19925;-43
2023/07/21 02:46:45;;;;;;;;;;;14.00;99.00;;;;;;5056777;28;19920;-43
2023/07/21 02:49:11;;;;;;;;;;;14.00;98.90;;;;;;5043394;28;19985;-42
2023/07/21 02:51:39;;;;;;;;;;;14.00;99.10;;;;;;5048900;28;19952;-41
2023/07/21 02:54:06;;;;;;;;;;;14.00;99.00;;;;;;5049381;28;19962;-42
2023/07/21 02:56:33;;;;;;;;;;;14.00;99.30;;;;;;5049212;28;20292;-42
2023/07/21 02:59:00;;;;;;;;;;;14.00;99.60;;;;;;5051215;28;20603;-42
2023/07/21 03:01:27;;;;;;;;;;;14.00;99.90;;;;;;5049065;28;20289;-42
2023/07/21 03:03:55;;;;;;;;;;;13.80;99.90;;;;;;5050315;28;19920;-42
2023/07/21 03:06:22;;;;;;;;;;;13.80;99.90;;;;;;5050371;28;19953;-42
2023/07/21 03:08:50;;;;;;;;;;;13.70;99.90;;;;;;5049128;28;19929;-42
2023/07/21 03:11:17;;;;;;;;;;;13.60;99.90;;;;;;5046557;28;19927;-42
2023/07/21 03:13:44;;;;;;;;;;;13.60;99.90;;;;;;5049729;28;19921;-42
2023/07/21 03:16:12;;;;;;;;;;;13.50;99.90;;;;;;5048767;28;19928;-41
2023/07/21 03:18:39;;;;;;;;;;;13.50;99.90;;;;;;5049054;28;19955;-41
2023/07/21 03:21:06;;;;;;;;;;;13.50;99.90;;;;;;5048478;28;20269;-42
2023/07/21 03:23:33;;;;;;;;;;;13.50;99.90;;;;;;5046558;28;19924;-42
2023/07/21 03:26:01;;;;;;;;;;;13.50;99.90;;;;;;5051240;28;19921;-42
2023/07/21 03:28:29;;;;;;;;;;;13.40;99.90;;;;;;5049707;28;19921;-42
2023/07/21 03:30:59;;;;;;;;;;;13.40;99.90;;;;;;5049150;28;20382;-42
2023/07/21 03:33:26;;;;;;;;;;;13.40;99.90;;;;;;5049410;28;20342;-42
2023/07/21 03:36:00;;;;;;;;;;;13.40;99.90;;;;;;5048251;28;19933;-41
2023/07/21 03:38:28;;;;;;;;;;;13.40;99.90;;;;;;5048089;28;19921;-42
2023/07/21 03:41:03;;;;;;;;;;;13.50;99.90;;;;;;5044722;28;20387;-41
2023/07/21 03:43:30;;;;;;;;;;;13.50;99.90;;;;;;5050246;28;20416;-42
2023/07/21 03:45:58;;;;;;;;;;;13.40;99.90;;;;;;5049599;28;19929;-42
2023/07/21 03:48:25;;;;;;;;;;;13.50;99.90;;;;;;5049424;28;20292;-42
2023/07/21 03:50:52;;;;;;;;;;;13.50;99.90;;;;;;5048296;28;19978;-42
2023/07/21 03:53:18;;;;;;;;;;;13.50;99.90;;;;;;5048780;28;19925;-42
2023/07/21 03:55:45;;;;;;;;;;;13.50;99.90;;;;;;5049160;28;20292;-42
2023/07/21 03:58:13;;;;;;;;;;;13.50;99.90;;;;;;5049996;28;19927;-42
2023/07/21 04:00:42;;;;;;;;;;;13.50;99.90;;;;;;5050013;28;19924;-42
2023/07/21 04:03:08;;;;;;;;;;;13.50;99.90;;;;;;5047196;28;20335;-42
2023/07/21 04:05:35;;;;;;;;;;;13.50;99.90;;;;;;5048594;28;19925;-41
2023/07/21 04:08:02;;;;;;;;;;;13.50;99.90;;;;;;5049804;28;19925;-42
2023/07/21 04:10:29;;;;;;;;;;;13.50;99.90;;;;;;5050204;28;19925;-43
2023/07/21 04:12:56;;;;;;;;;;;13.50;99.90;;;;;;5047547;28;20490;-43
2023/07/21 04:15:25;;;;;;;;;;;13.50;99.90;;;;;;5048873;28;19925;-42
2023/07/21 04:17:51;;;;;;;;;;;13.50;99.90;;;;;;5047539;28;19924;-42
2023/07/21 04:20:18;;;;;;;;;;;13.50;99.90;;;;;;5049318;28;20368;-42
2023/07/21 04:22:45;;;;;;;;;;;13.50;99.90;;;;;;5050342;28;20296;-42
2023/07/21 04:25:12;;;;;;;;;;;13.60;99.90;;;;;;5048425;28;19925;-42
2023/07/21 04:27:38;;;;;;;;;;;13.60;99.90;;;;;;5046966;28;19974;-43
2023/07/21 04:30:06;;;;;;;;;;;13.70;99.90;;;;;;5049907;28;20363;-42
2023/07/21 04:32:34;;;;;;;;;;;13.70;99.90;;;;;;5036945;28;20372;-42
2023/07/21 04:35:00;;;;;;;;;;;13.70;99.90;;;;;;5062960;28;19920;-42
2023/07/21 04:37:27;;;;;;;;;;;13.70;99.90;;;;;;5045917;28;19920;-42
2023/07/21 04:39:54;;;;;;;;;;;13.70;99.90;;;;;;5048890;28;19928;-42
2023/07/21 04:42:20;;;;;;;;;;;13.70;99.90;;;;;;5048053;28;19921;-42
2023/07/21 04:44:49;;;;;;;;;;;13.80;99.90;;;;;;5048064;28;19936;-41
2023/07/21 04:47:15;;;;;;;;;;;13.80;99.90;;;;;;5048949;28;20001;-42
2023/07/21 04:49:43;;;;;;;;;;;13.80;99.90;;;;;;5047555;28;19978;-42
2023/07/21 04:52:10;;;;;;;;;;;13.80;99.90;;;;;;5045866;28;19932;-41
2023/07/21 04:54:37;;;;;;;;;;;13.90;99.90;;;;;;5048658;28;19974;-41
2023/07/21 04:57:04;;;;;;;;;;;13.90;99.90;;;;;;5052152;28;20342;-42
2023/07/21 04:59:31;;;;;;;;;;;13.90;99.90;;;;;;5047937;28;19975;-42
2023/07/21 05:01:58;;;;;;;;;;;14.00;99.90;;;;;;5049274;28;19944;-41
2023/07/21 05:04:24;;;;;;;;;;;14.00;99.90;;;;;;5048492;28;19924;-41
2023/07/21 05:06:52;;;;;;;;;;;14.10;99.90;;;;;;5047793;28;19921;-42
2023/07/21 05:09:19;;;;;;;;;;;14.20;99.90;;;;;;5046331;28;19983;-42
2023/07/21 05:11:46;;;;;;;;;;;14.20;99.90;;;;;;5043412;28;20407;-42
2023/07/21 05:14:14;;;;;;;;;;;14.20;99.90;;;;;;5046016;28;19928;-42
2023/07/21 05:16:42;;;;;;;;;;;14.20;99.90;;;;;;5049752;28;19968;-42
2023/07/21 05:19:09;;;;;;;;;;;14.30;99.90;;;;;;5049359;28;19921;-42
2023/07/21 05:21:36;;;;;;;;;;;14.30;99.90;;;;;;5044434;28;19925;-41
2023/07/21 05:24:04;;;;;;;;;;;14.30;99.90;;;;;;5045662;28;20295;-42
2023/07/21 05:26:35;;;;;;;;;;;14.40;99.90;;;;;;5047992;28;19982;-42
2023/07/21 05:29:03;;;;;;;;;;;14.40;99.90;;;;;;5044681;28;21111;-42
2023/07/21 05:31:30;;;;;;;;;;;14.40;99.90;;;;;;5043753;28;19940;-40
2023/07/21 05:33:57;;;;;;;;;;;14.40;99.90;;;;;;5047344;28;19928;-42
2023/07/21 05:36:24;;;;;;;;;;;14.50;99.90;;;;;;5047447;28;20372;-42
2023/07/21 05:38:51;;;;;;;;;;;14.50;99.90;;;;;;5044162;28;19928;-42
2023/07/21 05:41:19;;;;;;;;;;;14.50;99.90;;;;;;5046772;28;20369;-42
2023/07/21 05:43:46;;;;;;;;;;;14.60;99.90;;;;;;5044754;28;19966;-42
2023/07/21 05:46:13;;;;;;;;;;;14.80;99.90;;;;;;5043016;28;20006;-41
2023/07/21 05:48:39;;;;;;;;;;;14.80;99.90;;;;;;5045378;28;19974;-42
2023/07/21 05:51:08;;;;;;;;;;;14.90;99.90;;;;;;5040400;28;20000;-42
2023/07/21 05:53:35;;;;;;;;;;;15.00;99.90;;;;;;5044571;28;19972;-42
2023/07/21 05:56:01;;;;;;;;;;;15.10;99.90;;;;;;5038443;28;19968;-42
2023/07/21 05:58:30;;;;;;;;;;;15.30;99.90;;;;;;5041102;28;19978;-42
2023/07/21 06:00:56;;;;;;;;;;;15.40;99.90;;;;;;5040148;28;19931;-42
2023/07/21 06:03:25;;;;;;;;;;;15.50;99.90;;;;;;5045189;28;19924;-41
2023/07/21 06:05:52;;;;;;;;;;;15.70;99.90;;;;;;5043985;28;19978;-42
2023/07/21 06:08:18;;;;;;;;;;;15.80;99.90;;;;;;5041969;28;20365;-42
2023/07/21 06:10:45;;;;;;;;;;;15.90;99.90;;;;;;5041515;28;19983;-42
2023/07/21 06:13:12;;;;;;;;;;;16.10;99.90;;;;;;5041489;28;19986;-42
2023/07/21 06:15:40;;;;;;;;;;;16.20;99.90;;;;;;5042008;28;19929;-44
2023/07/21 06:18:07;;;;;;;;;;;16.30;99.90;;;;;;5042103;28;19921;-42
2023/07/21 06:20:33;;;;;;;;;;;16.50;99.90;;;;;;5041008;28;19925;-42
2023/07/21 06:23:00;;;;;;;;;;;16.70;99.90;;;;;;5043430;28;19983;-42
2023/07/21 06:25:27;;;;;;;;;;;16.80;99.90;;;;;;5046588;28;20357;-42
2023/07/21 06:27:54;;;;;;;;;;;16.90;99.90;;;;;;5044624;28;19932;-42
2023/07/21 06:30:21;;;;;;;;;;;16.90;99.90;;;;;;5046550;28;19929;-42
2023/07/21 06:32:49;;;;;;;;;;;17.00;99.90;;;;;;5047522;28;19924;-42
2023/07/21 06:35:15;;;;;;;;;;;17.20;99.90;;;;;;5046828;28;19921;-41
2023/07/21 06:37:42;;;;;;;;;;;17.30;99.90;;;;;;5044492;28;19956;-42
2023/07/21 06:40:10;;;;;;;;;;;17.50;99.90;;;;;;5044580;28;19920;-42
2023/07/21 06:42:38;;;;;;;;;;;17.60;99.90;;;;;;5045981;28;19971;-42
2023/07/21 06:45:09;;;;;;;;;;;17.70;99.90;;;;;;5043052;28;19921;-43
2023/07/21 06:47:36;;;;;;;;;;;17.90;99.90;;;;;;5046506;28;19928;-42
2023/07/21 06:50:04;;;;;;;;;;;18.10;99.90;;;;;;5041920;28;19971;-41
2023/07/21 06:52:31;;;;;;;;;;;18.20;99.90;;;;;;5041329;28;19928;-42
2023/07/21 06:54:58;;;;;;;;;;;18.40;99.90;;;;;;5045915;28;19921;-42
2023/07/21 06:57:25;;;;;;;;;;;18.50;99.90;;;;;;5043147;28;19921;-42
2023/07/21 06:59:52;;;;;;;;;;;18.60;99.90;;;;;;5045276;28;19994;-43
2023/07/21 07:02:19;;;;;;;;;;;18.80;99.90;;;;;;5045176;28;19921;-43
2023/07/21 07:04:47;;;;;;;;;;;19.00;99.90;;;;;;5045479;28;19984;-43
2023/07/21 07:07:15;;;;;;;;;;;19.10;99.70;;;;;;5046279;28;19921;-42
2023/07/21 07:09:42;;;;;;;;;;;19.30;99.60;;;;;;5041682;28;20372;-43
2023/07/21 07:12:09;;;;;;;;;;;19.40;99.60;;;;;;5046763;28;19924;-43
2023/07/21 07:14:36;;;;;;;;;;;19.60;99.30;;;;;;5049476;28;19964;-42
2023/07/21 07:17:03;;;;;;;;;;;19.70;98.40;;;;;;5046086;28;19927;-42
2023/07/21 07:19:29;;;;;;;;;;;19.70;98.30;;;;;;5045381;28;20430;-43
2023/07/21 07:21:56;;;;;;;;;;;19.70;98.20;;;;;;5043457;28;19931;-42
2023/07/21 07:24:27;;;;;;;;;;;19.70;98.10;;;;;;5043841;28;19920;-44
2023/07/21 07:26:54;;;;;;;;;;;19.70;98.10;;;;;;5043272;28;20286;-42
2023/07/21 07:29:21;;;;;;;;;;;19.70;97.90;;;;;;5047983;28;19920;-43
2023/07/21 07:31:48;;;;;;;;;;;19.80;98.00;;;;;;5048087;28;20015;-43
2023/07/21 07:34:15;;;;;;;;;;;20.00;97.90;;;;;;5045074;28;19928;-42
2023/07/21 07:36:42;;;;;;;;;;;20.10;97.30;;;;;;5048751;28;19974;-43
2023/07/21 07:39:08;;;;;;;;;;;20.10;97.10;;;;;;5048798;28;19920;-42
2023/07/21 07:41:36;;;;;;;;;;;20.20;97.30;;;;;;5049664;28;19999;-43
2023/07/21 07:44:03;;;;;;;;;;;20.30;97.40;;;;;;5045034;28;19963;-42
2023/07/21 07:46:30;;;;;;;;;;;20.30;96.90;;;;;;5048922;28;20324;-42
2023/07/21 07:48:56;;;;;;;;;;;20.50;97.10;;;;;;5043695;28;20035;-41
2023/07/21 07:51:23;;;;;;;;;;;20.60;97.10;;;;;;5047415;28;20376;-42
2023/07/21 07:53:52;;;;;;;;;;;20.70;95.90;;;;;;5049525;28;19924;-41
2023/07/21 07:56:21;;;;;;;;;;;20.80;95.60;;;;;;5045955;28;19975;-41
2023/07/21 07:58:49;;;;;;;;;;;21.00;96.10;;;;;;5045526;28;19924;-41
2023/07/21 08:01:16;;;;;;;;;;;21.00;95.50;;;;;;5043342;28;20050;-41
2023/07/21 08:03:43;;;;;;;;;;;21.10;95.30;;;;;;5050105;28;20299;-41
2023/07/21 08:06:11;;;;;;;;;;;21.10;95.80;;;;;;5052297;28;19942;-41
2023/07/21 08:08:38;;;;;;;;;;;21.30;95.80;;;;;;5056497;28;19960;-42
2023/07/21 08:11:04;;;;;;;;;;;21.40;96.00;;;;;;5053709;28;19921;-42
2023/07/21 08:13:31;;;;;;;;;;;21.70;96.00;;;;;;5065277;28;19975;-43
2023/07/21 08:15:59;;;;;;;;;;;21.90;95.00;;;;;;5052393;28;20128;-43
2023/07/21 08:18:26;;;;;;;;;;;22.10;95.30;;;;;;5050123;28;19928;-41
2023/07/21 08:20:52;;;;;;;;;;;22.30;94.70;;;;;;5049547;28;19927;-42
2023/07/21 08:23:19;;;;;;;;;;;22.40;94.70;;;;;;5050602;28;19971;-42
2023/07/21 08:25:46;;;;;;;;;;;22.60;93.90;;;;;;5052442;28;19982;-42
2023/07/21 08:28:12;;;;;;;;;;;22.70;92.50;;;;;;5040965;28;19927;-42
2023/07/21 08:30:39;;;;;;;;;;;22.80;92.40;;;;;;5032911;28;20362;-43
2023/07/21 08:33:07;;;;;;;;;;;22.90;91.90;;;;;;5037032;28;20400;-42
2023/07/21 08:35:34;;;;;;;;;;;22.90;91.70;;;;;;5052379;28;19935;-42
2023/07/21 08:38:00;;;;;;;;;;;23.00;92.00;;;;;;5051281;28;19924;-42
2023/07/21 08:40:27;;;;;;;;;;;23.10;91.70;;;;;;5052258;28;19921;-42
2023/07/21 08:42:54;;;;;;;;;;;23.30;92.10;;;;;;5053589;28;19924;-42
2023/07/21 08:45:21;;;;;;;;;;;23.50;91.40;;;;;;5056089;28;20396;-42
2023/07/21 08:47:48;;;;;;;;;;;23.40;90.40;;;;;;5052608;28;19963;-42
2023/07/21 08:50:18;;;;;;;;;;;23.20;90.70;;;;;;5053121;28;20354;-41
2023/07/21 08:52:45;;;;;;;;;;;23.20;91.00;;;;;;5061553;28;19920;-42
2023/07/21 08:55:11;;;;;;;;;;;23.20;91.20;;;;;;5061652;28;19925;-41
2023/07/21 08:57:39;;;;;;;;;;;23.40;90.30;;;;;;5060074;28;19927;-42
2023/07/21 09:00:07;;;;;;;;;;;23.50;90.20;;;;;;5064164;28;20431;-42
2023/07/21 09:02:46;;;;;;;;;;;23.60;90.70;;;;;;5060516;28;19920;-42
2023/07/21 09:05:17;;;;;;;;;;;23.60;88.30;;;;;;5060653;28;19927;-42
2023/07/21 09:07:45;;;;;;;;;;;23.70;87.90;;;;;;5052887;28;20425;-42
2023/07/21 09:10:12;;;;;;;;;;;23.80;89.30;;;;;;5041969;28;19935;-42
2023/07/21 09:12:39;;;;;;;;;;;24.00;86.00;;;;;;5048076;28;20009;-42
2023/07/21 09:15:09;;;;;;;;;;;24.20;87.10;;;;;;5052274;28;19929;-42
2023/07/21 09:17:36;;;;;;;;;;;24.30;87.40;;;;;;5055808;28;19940;-42
2023/07/21 09:20:05;;;;;;;;;;;24.40;87.70;;;;;;5054541;28;19924;-42
2023/07/21 09:22:34;;;;;;;;;;;24.60;87.40;;;;;;5064216;28;19974;-42
2023/07/21 09:25:01;;;;;;;;;;;24.70;82.30;;;;;;5063503;28;20387;-42
2023/07/21 09:27:28;;;;;;;;;;;24.70;83.50;;;;;;5060870;28;20364;-41
2023/07/21 09:29:59;;;;;;;;;;;24.70;83.10;;;;;;5055272;28;20015;-42
2023/07/21 09:32:25;;;;;;;;;;;24.70;77.60;;;;;;5057784;28;20013;-42
2023/07/21 09:34:55;;;;;;;;;;;24.70;82.50;;;;;;5065339;28;20391;-42
2023/07/21 09:37:23;;;;;;;;;;;24.60;83.00;;;;;;5062876;28;19929;-43
2023/07/21 09:39:54;;;;;;;;;;;24.50;83.10;;;;;;5057333;28;19920;-41
2023/07/21 09:45:08;;;;;;;;;;;24.50;84.70;;;;;;4961805;28;19925;-41
2023/07/21 09:47:35;;;;;;;;;;;24.60;84.90;;;;;;4873686;28;19922;-42
2023/07/21 09:50:03;;;;;;;;;;;24.70;84.20;;;;;;4961545;28;20338;-42
2023/07/21 09:52:35;;;;;;;;;;;24.90;82.80;;;;;;4962242;28;19930;-41
2023/07/21 09:55:06;;;;;;;;;;;24.90;80.20;;;;;;4961435;28;20417;-42
2023/07/21 09:57:34;;;;;;;;;;;24.80;80.10;;;;;;4965860;28;19981;-42
2023/07/21 10:00:02;;;;;;;;;;;24.70;82.20;;;;;;4956533;28;19968;-43
2023/07/21 10:02:29;;;;;;;;;;;24.70;82.50;;;;;;4953672;28;20373;-43
2023/07/21 10:04:56;;;;;;;;;;;24.70;82.80;;;;;;4956072;28;19922;-42
2023/07/21 10:07:23;;;;;;;;;;;24.70;83.60;;;;;;4957356;28;19926;-43
2023/07/21 10:09:49;;;;;;;;;;;24.70;83.70;;;;;;4954407;28;20374;-42
2023/07/21 10:12:17;;;;;;;;;;;24.70;82.30;;;;;;4963753;28;19929;-42
2023/07/21 10:14:45;;;;;;;;;;;24.80;83.80;;;;;;4958883;28;19969;-42
2023/07/21 10:17:11;;;;;;;;;;;24.80;81.50;;;;;;4956966;28;19973;-42
2023/07/21 10:19:41;;;;;;;;;;;24.80;80.70;;;;;;4954725;28;19977;-42
2023/07/21 10:22:09;;;;;;;;;;;24.70;81.50;;;;;;4954547;28;19989;-42
2023/07/21 10:24:37;;;;;;;;;;;24.70;79.30;;;;;;4959441;28;20271;-43
2023/07/21 10:27:04;;;;;;;;;;;24.60;80.10;;;;;;4954961;28;19926;-43
2023/07/21 10:29:32;;;;;;;;;;;24.60;79.30;;;;;;4962756;28;19922;-43
2023/07/21 10:32:00;;;;;;;;;;;24.60;80.40;;;;;;4956489;28;20009;-42
2023/07/21 10:34:26;;;;;;;;;;;24.60;81.90;;;;;;4959456;28;20290;-42
2023/07/21 10:36:57;;;;;;;;;;;24.60;80.90;;;;;;4949700;28;19926;-43
2023/07/21 10:39:24;;;;;;;;;;;24.60;82.00;;;;;;4953966;28;20102;-41
2023/07/21 10:41:51;;;;;;;;;;;24.60;81.50;;;;;;4942504;28;19996;-43
2023/07/21 10:44:18;;;;;;;;;;;24.60;81.80;;;;;;4946893;28;19927;-42
2023/07/21 10:46:46;;;;;;;;;;;24.60;82.90;;;;;;4949365;28;21026;-43
2023/07/21 10:49:13;;;;;;;;;;;24.70;81.90;;;;;;4961122;28;19986;-43
2023/07/21 10:51:40;;;;;;;;;;;24.90;82.80;;;;;;4959438;28;19930;-42
2023/07/21 10:54:07;;;;;;;;;;;25.20;82.90;;;;;;4950913;28;19926;-43
2023/07/21 10:56:34;;;;;;;;;;;25.40;81.40;;;;;;4958383;28;20462;-41
2023/07/21 10:59:01;;;;;;;;;;;25.40;79.70;;;;;;4948898;28;19937;-41
2023/07/21 11:01:27;;;;;;;;;;;25.20;79.40;;;;;;4948622;28;19923;-42
2023/07/21 11:03:55;;;;;;;;;;;25.10;78.90;;;;;;4951064;28;20577;-40
2023/07/21 11:06:23;;;;;;;;;;;24.90;79.70;;;;;;4945218;28;19922;-42
2023/07/21 11:08:49;;;;;;;;;;;24.80;79.50;;;;;;4950062;28;20370;-42
2023/07/21 11:11:16;;;;;;;;;;;24.70;79.90;;;;;;4949780;28;20013;-42
2023/07/21 11:13:43;;;;;;;;;;;24.60;79.00;;;;;;4946842;28;19933;-42
2023/07/21 11:16:09;;;;;;;;;;;24.50;80.50;;;;;;4960483;28;19926;-42
2023/07/21 11:18:36;;;;;;;;;;;24.40;81.30;;;;;;4954698;28;20354;-43
2023/07/21 11:21:04;;;;;;;;;;;24.50;80.30;;;;;;4951455;28;19931;-42
2023/07/21 11:23:32;;;;;;;;;;;24.50;78.40;;;;;;4946560;28;20455;-41
2023/07/21 11:26:00;;;;;;;;;;;24.50;79.00;;;;;;4946632;28;19930;-42
2023/07/21 11:28:27;;;;;;;;;;;24.70;79.70;;;;;;4946892;28;20044;-43
2023/07/21 11:30:53;;;;;;;;;;;25.00;78.60;;;;;;4950142;28;20144;-43
2023/07/21 11:33:20;;;;;;;;;;;25.20;77.00;;;;;;4945963;28;19929;-42
2023/07/21 11:35:48;;;;;;;;;;;25.20;75.30;;;;;;4945758;28;19934;-43
2023/07/21 11:38:16;;;;;;;;;;;25.10;76.60;;;;;;4950942;28;19930;-42
2023/07/21 11:40:42;;;;;;;;;;;25.10;75.40;;;;;;4948422;28;19981;-42
2023/07/21 11:43:10;;;;;;;;;;;25.20;75.80;;;;;;4943742;28;19981;-42
2023/07/21 11:45:37;;;;;;;;;;;25.30;74.40;;;;;;4941991;28;19923;-42
2023/07/21 11:48:11;;;;;;;;;;;25.50;77.30;;;;;;4946737;28;19944;-43
2023/07/21 11:50:38;;;;;;;;;;;25.50;75.90;;;;;;4946999;28;19970;-42
2023/07/21 11:53:05;;;;;;;;;;;25.50;73.80;;;;;;4945779;28;20341;-43
2023/07/21 11:55:34;;;;;;;;;;;25.40;73.40;;;;;;4950832;28;19926;-42
2023/07/21 11:58:00;;;;;;;;;;;25.30;74.20;;;;;;4947920;28;20005;-42
2023/07/21 12:00:27;;;;;;;;;;;25.40;74.40;;;;;;4952899;28;19927;-43
2023/07/21 12:02:57;;;;;;;;;;;25.50;75.60;;;;;;4949141;28;20600;-43
2023/07/21 12:05:24;;;;;;;;;;;25.50;74.00;;;;;;4951453;28;19922;-43
2023/07/21 12:07:52;;;;;;;;;;;25.50;72.70;;;;;;4948040;28;19928;-43
2023/07/21 12:10:19;;;;;;;;;;;25.40;74.90;;;;;;4949621;28;19922;-42
2023/07/21 12:12:47;;;;;;;;;;;25.50;74.30;;;;;;4948762;28;19969;-43
2023/07/21 12:15:13;;;;;;;;;;;25.60;74.90;;;;;;4951682;28;20342;-42
2023/07/21 12:17:40;;;;;;;;;;;25.80;73.90;;;;;;4950386;28;19922;-42
2023/07/21 12:20:11;;;;;;;;;;;26.20;74.30;;;;;;4947628;29;19930;-41
2023/07/21 12:22:38;;;;;;;;;;;26.30;73.50;;;;;;4950709;29;20028;-44
2023/07/21 12:25:05;;;;;;;;;;;26.30;71.80;;;;;;4950699;29;19922;-43
2023/07/21 12:27:32;;;;;;;;;;;26.30;70.70;;;;;;4949872;28;19934;-41
2023/07/21 12:30:00;;;;;;;;;;;26.10;69.90;;;;;;4949637;29;19930;-43
2023/07/21 12:32:27;;;;;;;;;;;26.00;71.50;;;;;;4952037;28;19945;-43
2023/07/21 12:34:54;;;;;;;;;;;25.80;70.10;;;;;;4951809;28;19958;-42
2023/07/21 12:37:21;;;;;;;;;;;25.70;69.50;;;;;;4949978;29;20382;-43
2023/07/21 12:39:49;;;;;;;;;;;25.60;71.20;;;;;;4950149;28;20342;-43
2023/07/21 12:42:16;;;;;;;;;;;25.50;72.10;;;;;;4950968;28;20330;-43
2023/07/21 12:44:43;;;;;;;;;;;25.40;70.80;;;;;;4950457;29;19930;-43
2023/07/21 12:47:11;;;;;;;;;;;25.20;72.40;;;;;;4948141;29;19923;-42
2023/07/21 12:49:37;;;;;;;;;;;25.10;70.00;;;;;;4951250;29;19926;-43
2023/07/21 12:52:04;;;;;;;;;;;25.00;71.50;;;;;;4952909;28;19922;-43
2023/07/21 12:54:31;;;;;;;;;;;24.90;69.30;;;;;;4946969;28;20342;-43
2023/07/21 12:56:58;;;;;;;;;;;24.90;70.80;;;;;;4951307;28;19929;-43
2023/07/21 12:59:25;;;;;;;;;;;24.80;71.10;;;;;;4950710;28;19922;-42
2023/07/21 13:01:51;;;;;;;;;;;24.70;70.30;;;;;;4948738;28;20382;-43
2023/07/21 13:04:19;;;;;;;;;;;24.70;71.60;;;;;;4949366;28;19926;-42
2023/07/21 13:06:46;;;;;;;;;;;24.50;68.20;;;;;;4948880;28;20016;-44
2023/07/21 13:09:13;;;;;;;;;;;24.10;71.70;;;;;;4948175;29;19922;-43
2023/07/21 13:11:39;;;;;;;;;;;23.80;74.60;;;;;;4949855;28;19971;-43
2023/07/21 13:14:06;;;;;;;;;;;23.30;76.20;;;;;;4948665;28;19929;-42
2023/07/21 13:16:33;;;;;;;;;;;22.90;77.60;;;;;;4953392;28;19929;-41
2023/07/21 13:18:59;;;;;;;;;;;22.60;78.40;;;;;;4950149;28;19926;-42
2023/07/21 13:21:27;;;;;;;;;;;22.50;79.10;;;;;;4954754;28;19990;-43
2023/07/21 13:23:54;;;;;;;;;;;22.30;78.90;;;;;;4950621;29;19929;-43
2023/07/21 13:26:21;;;;;;;;;;;22.20;79.50;;;;;;4950210;29;20043;-43
2023/07/21 13:28:48;;;;;;;;;;;22.10;80.00;;;;;;4947405;28;19922;-42
2023/07/21 13:31:15;;;;;;;;;;;22.10;79.80;;;;;;4947909;28;19961;-42
2023/07/21 13:33:41;;;;;;;;;;;22.00;79.60;;;;;;4949763;29;20438;-43
2023/07/21 13:36:10;;;;;;;;;;;21.80;80.00;;;;;;4950196;28;19930;-42
2023/07/21 13:38:38;;;;;;;;;;;21.70;80.60;;;;;;4948465;28;19922;-42
2023/07/21 13:41:04;;;;;;;;;;;21.60;81.90;;;;;;4948685;29;19926;-43
2023/07/21 13:43:31;;;;;;;;;;;21.50;81.40;;;;;;4947542;29;19927;-44
2023/07/21 13:45:58;;;;;;;;;;;21.50;81.90;;;;;;4946777;28;19928;-43
2023/07/21 13:48:24;;;;;;;;;;;21.40;82.20;;;;;;4950331;29;19937;-43
2023/07/21 13:50:51;;;;;;;;;;;21.20;83.40;;;;;;4947179;29;19926;-43
2023/07/21 13:53:18;;;;;;;;;;;21.10;84.70;;;;;;4951173;28;20420;-43
2023/07/21 13:55:46;;;;;;;;;;;21.00;85.00;;;;;;4949543;29;19926;-43
2023/07/21 13:58:12;;;;;;;;;;;20.70;85.20;;;;;;4949749;28;19946;-41
2023/07/21 14:00:39;;;;;;;;;;;20.60;85.80;;;;;;4947980;29;19922;-43
2023/07/21 14:03:06;;;;;;;;;;;20.60;85.80;;;;;;4950659;28;19938;-43
2023/07/21 14:05:33;;;;;;;;;;;20.60;85.90;;;;;;4950306;28;19922;-43
2023/07/21 14:08:00;;;;;;;;;;;20.60;85.70;;;;;;4948567;28;19988;-42
2023/07/21 14:10:27;;;;;;;;;;;20.60;86.20;;;;;;4951992;28;19923;-43
2023/07/21 14:12:55;;;;;;;;;;;20.60;86.50;;;;;;4948717;28;19922;-43
2023/07/21 14:15:22;;;;;;;;;;;20.70;86.60;;;;;;4949841;28;19954;-43
2023/07/21 14:17:48;;;;;;;;;;;20.70;86.90;;;;;;4948750;29;19930;-42
2023/07/21 14:20:16;;;;;;;;;;;20.70;86.90;;;;;;4948504;28;20021;-44